Paramount Hamilton — 2CWB2 — position and weather

sailwx.info

Track history (hours):
 
Tides and Currents Weather Stations Pressure Air Temp Water Temp Dewpoint Dewpoint Depression Visibility Wind Speed Wind Dir Waves Ship Positions

Paramount Hamilton

Last reported at 2015-Apr-27 04:17 UTC. Time now 2015-May-23 14:59 UTC.
Position N 29°15' W 093°42'.
Warning: this ship's position is 26 days out of date.

Length 250 m; draft 11 m.

Type: Tanker. MMSI: 235076274.

Date/timePositionNaut miles runAvg speedWind from/ knotsBaromVisibWave heightAir tempDewpointWater temp
2015-Apr-27 04:17N 29°15' W 093°42'0 0.0
2015-Apr-27 03:20N 29°15' W 093°42'0 0.0
2015-Apr-27 02:32N 29°15' W 093°42'0 0.0
2015-Apr-26 19:14N 29°15' W 093°42'0 0.0
2015-Apr-26 18:32N 29°15' W 093°42'0 0.0
2015-Apr-26 17:32N 29°15' W 093°42'0 0.0
2015-Apr-26 15:32N 29°15' W 093°42'0 0.0
2015-Apr-26 14:20N 29°15' W 093°42'0 0.0
2015-Apr-26 13:32N 29°15' W 093°42'0 0.0
2015-Apr-26 12:29N 29°15' W 093°42'0 0.0
2015-Apr-26 11:08N 29°15' W 093°42'0 0.0
2015-Apr-25 10:11N 29°15' W 093°42'0 0.0
2015-Apr-24 05:17N 29°15' W 093°42'0 0.0
2015-Apr-24 04:11N 29°15' W 093°42'0 0.0
2015-Apr-24 03:32N 29°15' W 093°42'0 0.0
2015-Apr-24 02:08N 29°15' W 093°42'0 0.0
2015-Apr-23 14:32N 29°15' W 093°42'0 0.0
2015-Apr-23 13:29N 29°15' W 093°42'  
2015-Apr-20 13:06N 29°52' W 089°55'910.4
2015-Apr-20 12:12N 29°57' W 090°03'5 7.3
2015-Apr-20 11:32N 29°57' W 090°09'1211.8
2015-Apr-20 10:33N 29°56' W 090°22'1211.5
2015-Apr-20 09:32N 30°03' W 090°34'1212.0
2015-Apr-20 08:32N 30°00' W 090°47'  
2015-Apr-17 09:09N 29°57' W 090°22'12 6.3
2015-Apr-17 07:14N 29°57' W 090°09'4 5.5
2015-Apr-17 06:33N 29°55' W 090°05'6 5.7
2015-Apr-17 05:33N 29°55' W 089°58'  
Track history (hours):
 
Tides and Currents Weather Stations Pressure Air Temp Water Temp Dewpoint Dewpoint Depression Visibility Wind Speed Wind Dir Waves Ship Positions

Paramount Hamilton

Last reported at 2015-Apr-27 04:17 UTC. Time now 2015-May-23 14:59 UTC.
Position N 29°15' W 093°42'.
Warning: this ship's position is 26 days out of date.

Length 250 m; draft 11 m.

Type: Tanker. MMSI: 235076274.

Date/timePositionNaut miles runAvg speedWind from/ knotsBaromVisibWave heightAir tempDewpointWater temp
2015-Apr-27 04:17N 29°15' W 093°42'0 0.0
2015-Apr-27 03:20N 29°15' W 093°42'0 0.0
2015-Apr-27 02:32N 29°15' W 093°42'0 0.0
2015-Apr-26 19:14N 29°15' W 093°42'0 0.0
2015-Apr-26 18:32N 29°15' W 093°42'0 0.0
2015-Apr-26 17:32N 29°15' W 093°42'0 0.0
2015-Apr-26 15:32N 29°15' W 093°42'0 0.0
2015-Apr-26 14:20N 29°15' W 093°42'0 0.0
2015-Apr-26 13:32N 29°15' W 093°42'0 0.0
2015-Apr-26 12:29N 29°15' W 093°42'0 0.0
2015-Apr-26 11:08N 29°15' W 093°42'0 0.0
2015-Apr-25 10:11N 29°15' W 093°42'0 0.0
2015-Apr-24 05:17N 29°15' W 093°42'0 0.0
2015-Apr-24 04:11N 29°15' W 093°42'0 0.0
2015-Apr-24 03:32N 29°15' W 093°42'0 0.0
2015-Apr-24 02:08N 29°15' W 093°42'0 0.0
2015-Apr-23 14:32N 29°15' W 093°42'0 0.0
2015-Apr-23 13:29N 29°15' W 093°42'  
2015-Apr-20 13:06N 29°52' W 089°55'910.4
2015-Apr-20 12:12N 29°57' W 090°03'5 7.3
2015-Apr-20 11:32N 29°57' W 090°09'1211.8
2015-Apr-20 10:33N 29°56' W 090°22'1211.5
2015-Apr-20 09:32N 30°03' W 090°34'1212.0
2015-Apr-20 08:32N 30°00' W 090°47'  
2015-Apr-17 09:09N 29°57' W 090°22'12 6.3
2015-Apr-17 07:14N 29°57' W 090°09'4 5.5
2015-Apr-17 06:33N 29°55' W 090°05'6 5.7
2015-Apr-17 05:33N 29°55' W 089°58'  

Dump ship's entire track history